Latest Weather Observations for Cape Flattery

IDQ60801

Issued at 4:35 pm EST Tuesday 2 September 2014 (issued every 30 minutes, with the page automatically refreshed every 10 minutes)

About weather observations | Map of weather stations | Latest weather observations for QLD | Other Formats
Station Details ID: 031213 Name: CAPE FLATTERY Lat: -14.97 Lon: 145.31 Height: 18.5 m
Data from the previous 72 hours. | See also: Recent months at Cape Flattery
Date/Time
EST
Temp
°C
App
Temp
°C
Dew
Point
Rel
Hum
%
Delta-T
°C
Wind Press
QNH
hPa
Press
MSL
hPa
Rain
since 9 am
mm
Dir
 
Spd
km/h
Gust
km/h
Spd
kts
Gust
kts
02/04:30pm 24.5 21.4 15.7 58 5.3 SSE 26 35 14 19 1014.3 1014.2 0.0
02/04:00pm 25.1 21.9 16.3 58 5.4 SSE 28 37 15 20 1014.3 1014.2 0.0
02/03:30pm 25.4 21.9 16.5 58 5.5 SSE 30 37 16 20 1014.4 1014.3 0.0
02/03:00pm 25.7 22.7 16.8 58 5.5 SE 28 37 15 20 1014.7 1014.6 0.0
02/02:30pm 25.6 22.9 17.5 61 5.1 SSE 28 35 15 19 1015.0 1014.9 0.0
02/02:00pm 25.4 22.5 17.1 60 5.2 SSE 28 39 15 21 1015.4 1015.3 0.0
02/01:30pm 25.6 22.9 17.5 61 5.1 SSE 28 37 15 20 1015.8 1015.7 0.0
02/01:00pm 25.4 22.1 17.1 60 5.2 SSE 30 37 16 20 1016.2 1016.1 0.0
02/12:30pm 25.8 22.8 17.7 61 5.1 SSE 30 39 16 21 1016.6 1016.5 0.0
02/12:00pm 25.8 22.7 17.4 59 5.2 SSE 30 37 16 20 1016.9 1016.8 0.0
02/11:30am 26.4 23.5 18.0 60 5.3 SSE 30 39 16 21 1017.3 1017.2 0.0
02/11:00am 25.7 22.1 17.1 59 5.3 SSE 32 39 17 21 1017.7 1017.6 0.0
02/10:30am 25.1 21.2 16.5 59 5.3 SSE 32 43 17 23 1017.8 1017.7 0.0
02/10:00am 24.8 21.4 16.8 61 4.9 SSE 30 41 16 22 1017.9 1017.8 0.0
02/09:30am 25.1 22.0 17.6 63 4.7 SSE 30 41 16 22 1018.1 1018.0 0.0
02/09:00am 24.5 21.0 17.5 65 4.4 SSE 32 41 17 22 1017.9 1017.8 0.0
02/08:30am 24.0 21.3 17.5 67 4.0 SSE 28 37 15 20 1017.7 1017.6 0.0
02/08:00am 23.2 20.4 17.4 70 3.6 SSE 28 37 15 20 1017.4 1017.3 0.0
02/07:30am 22.5 20.0 17.2 72 3.3 SSE 26 35 14 19 1017.1 1017.0 0.0
02/07:00am 21.8 19.1 16.7 73 3.1 SSE 26 35 14 19 1016.9 1016.8 0.0
02/06:30am 21.5 18.8 16.5 73 3.0 SSE 26 35 14 19 1016.6 1016.5 0.0
02/06:00am 21.4 18.9 16.1 72 3.2 SSE 24 32 13 17 1016.4 1016.3 0.0
02/05:30am 21.5 18.6 16.0 71 3.3 SSE 26 35 14 19 1016.2 1016.1 0.0
02/05:00am 21.5 18.6 16.2 72 3.2 SSE 26 35 14 19 1016.1 1016.0 0.0
02/04:30am 21.7 18.5 16.4 72 3.2 SSE 28 39 15 21 1015.8 1015.7 0.0
02/04:00am 21.7 18.6 16.6 73 3.1 SSE 28 39 15 21 1016.0 1015.9 0.0
02/03:30am 21.7 18.5 16.4 72 3.2 SSE 28 39 15 21 1016.2 1016.1 0.0
02/03:00am 21.7 19.0 16.6 73 3.1 SSE 26 35 14 19 1016.2 1016.1 0.0
02/02:30am 21.7 18.2 16.4 72 3.2 SSE 30 39 16 21 1016.0 1015.9 0.0
02/02:00am 21.8 18.8 16.7 73 3.1 SSE 28 35 15 19 1016.1 1016.0 0.0
02/01:30am 22.0 19.8 16.9 73 3.1 SSE 24 33 13 18 1016.4 1016.3 0.0
02/01:00am 22.0 19.3 16.7 72 3.2 SSE 26 33 14 18 1016.5 1016.4 0.0
02/12:30am 22.0 19.3 16.7 72 3.2 SSE 26 35 14 19 1016.9 1016.8 0.0
02/12:00am 22.2 19.2 16.9 72 3.2 SE 28 37 15 20 1017.1 1017.0 0.0
 
Date/Time
EST
Temp
°C
App
Temp
°C
Dew
Point
Rel
Hum
%
Delta-T
°C
Wind Press
QNH
hPa
Press
MSL
hPa
Rain
since 9 am
mm
Dir
 
Spd
km/h
Gust
km/h
Spd
kts
Gust
kts
01/11:30pm 22.1 19.9 16.8 72 3.2 SE 24 32 13 17 1017.5 1017.4 0.0
01/11:00pm 22.2 19.9 16.7 71 3.3 SE 24 32 13 17 1017.4 1017.3 0.0
01/10:30pm 22.2 19.8 16.5 70 3.5 SE 24 32 13 17 1017.8 1017.7 0.0
01/10:00pm 22.3 19.5 16.3 69 3.6 SE 26 37 14 20 1017.9 1017.8 0.0
01/09:30pm 22.3 19.9 16.3 69 3.6 SE 24 32 13 17 1017.6 1017.5 0.0
01/09:00pm 22.4 19.5 16.2 68 3.7 SE 26 35 14 19 1017.4 1017.3 0.0
01/08:30pm 22.4 20.0 16.4 69 3.6 SE 24 39 13 21 1017.0 1016.9 0.0
01/08:00pm 22.5 19.7 16.3 68 3.8 SE 26 35 14 19 1016.8 1016.7 0.0
01/07:30pm 22.5 19.6 16.1 67 3.9 SE 26 33 14 18 1016.6 1016.5 0.0
01/07:00pm 22.5 19.9 15.8 66 4.0 SE 24 33 13 18 1016.2 1016.1 0.0
01/06:30pm 22.7 20.1 15.8 65 4.2 SE 24 35 13 19 1015.8 1015.7 0.0
01/06:00pm 23.0 19.9 15.6 63 4.4 SE 26 37 14 20 1015.5 1015.4 0.0
01/05:30pm 23.8 20.3 15.6 60 4.9 SE 28 39 15 21 1014.9 1014.8 0.0
01/05:00pm 24.4 21.0 15.9 59 5.2 SE 28 41 15 22 1014.7 1014.6 0.0
01/04:30pm 25.0 21.2 16.7 60 5.1 SE 32 43 17 23 1014.9 1014.8 0.0
01/04:00pm 25.2 21.5 16.9 60 5.1 SE 32 39 17 21 1014.6 1014.5 0.0
01/03:30pm 25.6 22.7 18.8 66 4.3 SSE 32 41 17 22 1014.6 1014.5 0.0
01/03:00pm 25.1 21.4 18.3 66 4.3 SSE 35 43 19 23 1014.8 1014.7 0.0
01/02:30pm 25.6 22.1 18.8 66 4.3 SSE 35 44 19 24 1014.8 1014.7 0.0
01/02:00pm 25.4 21.4 18.6 66 4.3 SSE 37 44 20 24 1015.2 1015.1 0.0
01/01:30pm 25.9 22.0 18.8 65 4.5 SSE 37 46 20 25 1015.5 1015.4 0.0
01/01:00pm 25.4 21.3 18.3 65 4.5 SSE 37 50 20 27 1015.9 1015.8 0.0
01/12:30pm 25.7 21.9 18.9 66 4.3 SSE 37 46 20 25 1016.3 1016.2 0.0
01/12:00pm 25.6 22.1 18.8 66 4.3 SSE 35 48 19 26 1016.7 1016.6 0.0
01/11:30am 25.0 21.3 18.4 66 4.2 SSE 35 43 19 23 1017.1 1017.0 0.0
01/11:00am 25.3 21.1 19.0 68 4.0 SSE 39 50 21 27 1017.5 1017.4 0.0
01/10:30am 25.0 21.6 18.9 69 3.9 S 35 48 19 26 1017.8 1017.7 0.0
01/10:00am 24.5 21.7 19.1 72 3.4 SSE 32 43 17 23 1017.6 1017.5 0.0
01/09:30am 24.3 21.7 18.7 71 3.6 SSE 30 43 16 23 1017.6 1017.5 0.0
01/09:00am 25.2 23.6 19.3 70 3.8 SE 26 37 14 20 1017.2 1017.1 0.0
01/08:30am 23.7 21.8 19.4 77 2.8 SSE 28 37 15 20 1016.8 1016.7 0.0
01/08:00am 22.7 20.6 18.9 79 2.4 SSE 28 37 15 20 1016.6 1016.5 0.0
01/07:30am 22.3 20.0 18.5 79 2.4 SSE 28 35 15 19 1016.5 1016.4 0.0
01/07:00am 22.1 20.6 18.5 80 2.3 SSE 24 33 13 18 1016.3 1016.2 0.0
01/06:30am 22.2 20.2 18.2 78 2.5 SSE 26 33 14 18 1015.9 1015.8 0.0
01/06:00am 22.2 19.8 18.2 78 2.5 SSE 28 37 15 20 1015.6 1015.5 0.0
01/05:30am 22.1 20.0 18.1 78 2.5 SE 26 35 14 19 1015.3 1015.2 0.0
01/05:00am 22.1 20.0 18.1 78 2.5 SSE 26 35 14 19 1015.0 1014.9 0.0
01/04:30am 22.2 19.3 18.0 77 2.6 SE 30 39 16 21 1014.9 1014.8 0.0
01/04:00am 22.2 19.7 18.0 77 2.6 SE 28 41 15 22 1014.8 1014.7 0.0
01/03:30am 22.3 19.8 18.1 77 2.6 SE 28 37 15 20 1014.9 1014.8 0.0
01/03:00am 22.2 19.8 18.2 78 2.5 SSE 28 41 15 22 1014.8 1014.7 0.0
01/02:30am 22.4 19.3 18.4 78 2.5 SSE 32 43 17 23 1014.9 1014.8 0.0
01/02:00am 22.4 19.1 18.0 76 2.7 SSE 32 39 17 21 1015.3 1015.2 0.0
01/01:30am 22.3 19.4 17.9 76 2.7 SE 30 39 16 21 1015.3 1015.2 0.0
01/01:00am 22.4 19.5 18.0 76 2.7 SSE 30 37 16 20 1015.6 1015.5 0.0
01/12:30am 22.5 19.9 17.8 75 2.9 SE 28 37 15 20 1015.8 1015.7 0.0
01/12:00am 22.5 19.8 17.6 74 3.0 SE 28 39 15 21 1016.1 1016.0 0.0
 
Date/Time
EST
Temp
°C
App
Temp
°C
Dew
Point
Rel
Hum
%
Delta-T
°C
Wind Press
QNH
hPa
Press
MSL
hPa
Rain
since 9 am
mm
Dir
 
Spd
km/h
Gust
km/h
Spd
kts
Gust
kts
31/11:30pm 22.6 20.0 17.7 74 3.0 SE 28 39 15 21 1016.3 1016.2 0.0
31/11:00pm 22.5 19.7 17.4 73 3.1 SE 28 39 15 21 1016.5 1016.4 0.0
31/10:30pm 22.5 20.5 17.4 73 3.2 SE 24 37 13 20 1016.4 1016.3 0.0
31/10:00pm 22.8 20.2 17.9 74 3.1 SE 28 41 15 22 1016.1 1016.0 0.0
31/09:30pm 22.5 19.7 17.2 72 3.3 SE 28 43 15 23 1016.3 1016.2 0.0
31/09:00pm 22.6 19.4 17.3 72 3.3 SE 30 41 16 22 1016.3 1016.2 0.0
31/08:30pm 22.5 20.0 17.0 71 3.4 SE 26 37 14 20 1015.9 1015.8 0.0
31/08:00pm 22.6 19.5 16.6 69 3.7 SE 28 41 15 22 1015.6 1015.5 0.0
31/07:30pm 22.6 19.5 16.6 69 3.7 SE 28 37 15 20 1015.2 1015.1 0.0
31/07:00pm 22.5 19.3 16.3 68 3.8 SE 28 35 15 19 1014.8 1014.7 0.0
31/06:30pm 22.6 19.4 16.2 67 3.9 SE 28 39 15 21 1014.6 1014.5 0.0
31/06:00pm 22.9 19.3 16.2 66 4.1 SE 30 39 16 21 1014.2 1014.1 0.0
31/05:30pm 23.4 19.4 16.7 66 4.1 SE 33 43 18 23 1013.8 1013.7 0.0
31/05:00pm 24.0 20.1 17.0 65 4.3 SE 33 43 18 23 1013.7 1013.6 0.0
31/04:30pm 24.1 19.3 17.6 67 4.1 SSE 39 50 21 27 1013.5 1013.4 0.0
31/04:00pm 24.6 20.4 18.1 67 4.1 SSE 37 50 20 27 1013.2 1013.1 0.0
31/03:30pm 25.0 21.2 18.0 65 4.4 SSE 35 48 19 26 1013.1 1013.0 0.0
31/03:00pm 25.3 21.5 18.2 64 4.5 SSE 35 48 19 26 1013.3 1013.2 0.0
31/02:30pm 25.6 22.0 18.5 65 4.5 SSE 35 48 19 26 1013.6 1013.5 0.0
31/02:00pm 25.4 21.3 18.3 65 4.5 SSE 37 46 20 25 1014.2 1014.1 0.0
31/01:30pm 24.9 20.7 18.1 66 4.3 SSE 37 48 20 26 1014.5 1014.4 0.0
31/01:00pm 25.5 22.4 18.9 67 4.2 SSE 33 46 18 25 1014.7 1014.6 0.0
31/12:30pm 25.6 22.1 18.8 66 4.3 SSE 35 43 19 23 1015.0 1014.9 0.0
31/12:00pm 25.9 22.9 19.1 66 4.4 SSE 33 44 18 24 1015.4 1015.3 0.0
31/11:30am 25.7 22.3 19.1 67 4.2 SSE 35 44 19 24 1015.9 1015.8 0.0
31/11:00am 25.0 21.7 18.4 66 4.2 SSE 33 43 18 23 1016.4 1016.3 0.0
31/10:30am 25.0 22.0 18.7 68 4.0 SSE 32 43 17 23 1016.8 1016.7 0.0
31/10:00am 24.3 21.1 18.5 70 3.7 SSE 33 43 18 23 1017.1 1017.0 0.0
31/09:30am 24.7 22.7 19.1 71 3.6 SSE 28 37 15 20 1017.1 1017.0 0.0
31/09:00am 24.3 21.7 18.7 71 3.5 SSE 30 39 16 21 1017.0 1016.9 0.0
31/08:30am 23.6 20.3 18.0 71 3.5 SSE 32 43 17 23 1016.7 1016.6 0.0
31/08:00am 23.8 20.3 17.8 69 3.7 SSE 33 43 18 23 1016.4 1016.3 0.0
31/07:30am 23.5 20.3 18.2 72 3.3 SSE 32 43 17 23 1016.1 1016.0 0.0
31/07:00am 22.8 21.1 18.1 75 2.9 SE 24 30 13 16 1015.8 1015.7 0.0
31/06:30am 22.2 20.3 17.6 75 2.8 SE 24 33 13 18 1015.5 1015.4 0.0
31/06:00am 22.1 19.6 17.2 74 3.0 SSE 26 37 14 20 1015.2 1015.1 0.0
31/05:30am 22.1 19.6 17.2 74 3.0 SSE 26 35 14 19 1014.8 1014.7 0.0
31/05:00am 21.9 19.8 17.1 74 2.9 SSE 24 33 13 18 1014.5 1014.4 0.0
31/04:30am 21.9 19.8 17.1 74 2.9 SE 24 32 13 17 1014.4 1014.3 0.0
31/04:00am 21.9 20.4 16.8 73 3.1 SE 20 26 11 14 1014.4 1014.3 0.0
31/03:30am 21.9 19.6 16.6 72 3.2 SE 24 32 13 17 1014.5 1014.4 0.0
31/03:00am 22.0 19.8 16.9 73 3.1 SE 24 32 13 17 1014.6 1014.5 0.0
31/02:30am 22.0 19.7 16.7 72 3.2 SE 24 33 13 18 1014.9 1014.8 0.0
31/02:00am 21.8 20.2 16.5 72 3.2 SE 20 28 11 15 1015.1 1015.0 0.0
31/01:30am 22.2 19.5 16.7 71 3.4 SE 26 35 14 19 1015.4 1015.3 0.0
31/01:00am 22.0 19.9 16.3 70 3.4 SE 22 32 12 17 1015.8 1015.7 0.0
31/12:30am 22.1 20.1 16.4 70 3.5 SE 22 32 12 17 1016.3 1016.2 0.0
31/12:00am 22.2 19.7 16.2 69 3.6 SE 24 32 13 17 1016.7 1016.6 0.0
 
Date/Time
EST
Temp
°C
App
Temp
°C
Dew
Point
Rel
Hum
%
Delta-T
°C
Wind Press
QNH
hPa
Press
MSL
hPa
Rain
since 9 am
mm
Dir
 
Spd
km/h
Gust
km/h
Spd
kts
Gust
kts
30/11:30pm 22.2 20.0 16.0 68 3.7 SE 22 30 12 16 1016.8 1016.7 0.0
30/11:00pm 22.4 19.1 16.0 67 3.9 SE 28 37 15 20 1016.9 1016.8 0.0
30/10:30pm 22.5 19.2 16.1 67 3.9 SE 28 39 15 21 1016.9 1016.8 0.0
30/10:00pm 22.5 19.7 16.3 68 3.8 SE 26 35 14 19 1016.9 1016.8 0.0
30/09:30pm 22.9 19.7 16.2 66 4.1 SE 28 41 15 22 1016.9 1016.8 0.0
30/09:00pm 22.8 19.3 16.4 67 3.9 SE 30 41 16 22 1016.8 1016.7 0.0
30/08:38pm 23.0 19.4 16.3 66 4.1 SE 30 48 16 26 1016.8 1016.7 0.0
30/08:30pm 22.9 19.3 16.2 66 4.1 SE 30 43 16 23 1016.7 1016.6 0.0
30/08:00pm 22.6 18.8 15.7 65 4.1 SE 30 43 16 23 1016.5 1016.4 0.0
30/07:30pm 22.5 18.7 15.8 66 4.0 SE 30 41 16 22 1016.3 1016.2 0.0
30/07:00pm 22.6 18.1 15.4 64 4.3 SE 33 43 18 23 1016.2 1016.1 0.0
30/06:30pm 22.7 18.2 15.5 64 4.3 SE 33 46 18 25 1015.5 1015.4 0.0
30/06:00pm 22.8 18.0 15.6 64 4.3 SSE 35 46 19 25 1015.5 1015.4 0.0
30/05:30pm 23.3 18.2 15.9 63 4.5 SSE 37 48 20 26 1015.1 1015.0 0.0
30/05:00pm 23.5 18.8 15.8 62 4.6 SSE 35 48 19 26 1015.0 1014.9 0.0

Other Formats:

Comma delimited format used in spreadsheet applications
http://www.bom.gov.au/fwo/IDQ60801/IDQ60801.94188.axf

JavaScript Object Notation format (JSON) in row-major order
http://www.bom.gov.au/fwo/IDQ60801/IDQ60801.94188.json